Harrisburg, Alabama
Current Conditions -  °F | °C
As of 8:15 AM on Thursday 29 Jan 2015 (Local Time) from KASN Reporting Station
Clear Clear  
Wind Chill: 43°   Ceiling: Unl
Heat Index: 43°   Visibility: 10mi
Dew Point: 35°   Wind: 0mph
Humidity: 73%   Direction: NA
Pressure: 30.29"   Gusts: NA
Location:  33.5807°N, 86.3463°W
Report Text: KASN 291415Z AUTO 00000KT 10SM CLR 06/02 A3029 RMK AO2 T00610016
Loading
Personal Weather Stations






























Interactive Weather Map New forecast layout! Learn more

10-Day Weather Forecast

Advertisements
Track Severe Weather on mobile